Time;durP1;ratioP1;P1;durP2;ratioP2;P2;SDS_P1;SDS_P2;PMS_P1;PMS_P2;Temp;Humidity;BMP_temperature;BMP_pressure;BME280_temperature;BME280_humidity;BME280_pressure;Samples;Min_cycle;Max_cycle;Signal;HPM_P1;HPM_P2
2020/03/12 00:02:13;;;;;;;0.64;0.58;;;;;;;18.73;41.43;100364.16;;;;-51
2020/03/12 00:05:13;;;;;;;0.75;0.75;;;;;;;18.71;41.45;100356.74;;;;-50
2020/03/12 00:08:13;;;;;;;0.81;0.81;;;;;;;18.71;41.44;100352.72;;;;-52
2020/03/12 00:11:13;;;;;;;0.76;0.76;;;;;;;18.70;41.45;100348.16;;;;-51
2020/03/12 00:14:13;;;;;;;0.84;0.84;;;;;;;18.70;41.48;100347.22;;;;-51
2020/03/12 00:17:13;;;;;;;0.73;0.73;;;;;;;18.68;41.46;100342.89;;;;-51
2020/03/12 00:20:13;;;;;;;0.80;0.80;;;;;;;18.68;41.46;100342.22;;;;-50
2020/03/12 00:23:13;;;;;;;0.71;0.71;;;;;;;18.67;41.48;100338.39;;;;-51
2020/03/12 00:26:13;;;;;;;0.75;0.75;;;;;;;18.67;41.49;100340.73;;;;-51
2020/03/12 00:29:13;;;;;;;0.84;0.84;;;;;;;18.66;41.48;100339.02;;;;-51
2020/03/12 00:32:13;;;;;;;0.70;0.70;;;;;;;18.66;41.49;100334.42;;;;-50
2020/03/12 00:35:13;;;;;;;0.76;0.76;;;;;;;18.65;41.48;100333.38;;;;-51
2020/03/12 00:38:13;;;;;;;0.70;0.70;;;;;;;18.65;41.44;100332.27;;;;-50
2020/03/12 00:41:13;;;;;;;0.60;0.60;;;;;;;18.64;41.47;100329.31;;;;-50
2020/03/12 00:44:13;;;;;;;0.70;0.70;;;;;;;18.63;41.50;100327.88;;;;-51
2020/03/12 00:47:13;;;;;;;0.70;0.70;;;;;;;18.62;41.49;100324.64;;;;-50
2020/03/12 00:50:13;;;;;;;0.78;0.78;;;;;;;18.61;41.49;100321.59;;;;-51
2020/03/12 00:53:13;;;;;;;0.81;0.81;;;;;;;18.60;41.49;100322.78;;;;-51
2020/03/12 00:56:13;;;;;;;0.61;0.61;;;;;;;18.60;41.52;100322.22;;;;-51
2020/03/12 00:59:13;;;;;;;0.74;0.74;;;;;;;18.60;41.51;100322.67;;;;-51
2020/03/12 01:02:13;;;;;;;0.70;0.70;;;;;;;18.59;41.50;100319.06;;;;-51
2020/03/12 01:05:13;;;;;;;0.74;0.74;;;;;;;18.58;41.52;100313.59;;;;-51
2020/03/12 01:08:13;;;;;;;0.77;0.77;;;;;;;18.58;41.50;100302.45;;;;-51
2020/03/12 01:11:13;;;;;;;0.70;0.70;;;;;;;18.57;41.52;100291.64;;;;-51
2020/03/12 01:14:13;;;;;;;0.65;0.65;;;;;;;18.57;41.48;100287.81;;;;-51
2020/03/12 01:17:13;;;;;;;0.78;0.78;;;;;;;18.57;41.49;100295.16;;;;-51
2020/03/12 01:20:13;;;;;;;0.80;0.80;;;;;;;18.56;41.51;100293.56;;;;-50
2020/03/12 01:23:13;;;;;;;0.76;0.76;;;;;;;18.56;41.51;100294.16;;;;-51
2020/03/12 01:26:13;;;;;;;0.70;0.70;;;;;;;18.55;41.48;100287.59;;;;-50
2020/03/12 01:29:13;;;;;;;0.71;0.71;;;;;;;18.55;41.45;100286.26;;;;-51
2020/03/12 01:32:13;;;;;;;0.79;0.71;;;;;;;18.54;41.49;100284.87;;;;-50
2020/03/12 01:35:13;;;;;;;0.78;0.78;;;;;;;18.54;41.50;100280.76;;;;-51
2020/03/12 01:38:13;;;;;;;0.82;0.82;;;;;;;18.53;41.48;100278.20;;;;-51
2020/03/12 01:41:13;;;;;;;0.70;0.70;;;;;;;18.52;41.51;100270.73;;;;-51
2020/03/12 01:44:13;;;;;;;0.83;0.83;;;;;;;18.51;41.48;100259.98;;;;-51
2020/03/12 01:47:13;;;;;;;0.64;0.64;;;;;;;18.51;41.49;100255.58;;;;-51
2020/03/12 01:50:13;;;;;;;0.81;0.79;;;;;;;18.50;41.50;100252.15;;;;-50
2020/03/12 01:53:13;;;;;;;0.70;0.70;;;;;;;18.50;41.52;100244.89;;;;-50
2020/03/12 01:56:13;;;;;;;0.79;0.79;;;;;;;18.49;41.46;100239.67;;;;-51
2020/03/12 01:59:13;;;;;;;0.94;0.94;;;;;;;18.49;41.49;100247.25;;;;-47
2020/03/12 02:02:13;;;;;;;0.70;0.70;;;;;;;18.48;41.50;100239.05;;;;-47
2020/03/12 02:05:13;;;;;;;0.69;0.69;;;;;;;18.48;41.52;100238.45;;;;-47
2020/03/12 02:08:13;;;;;;;0.83;0.83;;;;;;;18.46;41.52;100235.19;;;;-47
2020/03/12 02:11:13;;;;;;;0.60;0.60;;;;;;;18.46;41.52;100229.77;;;;-48
2020/03/12 02:14:13;;;;;;;0.72;0.72;;;;;;;18.46;41.51;100226.98;;;;-47
2020/03/12 02:17:13;;;;;;;0.79;0.79;;;;;;;18.45;41.51;100220.75;;;;-47
2020/03/12 02:20:13;;;;;;;0.80;0.80;;;;;;;18.44;41.52;100214.46;;;;-47
2020/03/12 02:23:13;;;;;;;0.82;0.82;;;;;;;18.44;41.52;100214.36;;;;-47
2020/03/12 02:26:13;;;;;;;0.80;0.80;;;;;;;18.44;41.49;100213.79;;;;-47
2020/03/12 02:29:13;;;;;;;0.63;0.63;;;;;;;18.44;41.50;100212.28;;;;-47
2020/03/12 02:32:13;;;;;;;0.91;0.91;;;;;;;18.43;41.55;100207.45;;;;-47
2020/03/12 02:35:13;;;;;;;0.71;0.71;;;;;;;18.43;41.52;100207.39;;;;-47
2020/03/12 02:38:13;;;;;;;0.80;0.80;;;;;;;18.42;41.54;100204.41;;;;-47
2020/03/12 02:41:13;;;;;;;0.71;0.71;;;;;;;18.41;41.51;100198.11;;;;-47
2020/03/12 02:44:13;;;;;;;0.76;0.76;;;;;;;18.41;41.52;100194.33;;;;-47
2020/03/12 02:47:13;;;;;;;0.73;0.73;;;;;;;18.41;41.51;100196.27;;;;-47
2020/03/12 02:50:13;;;;;;;0.80;0.80;;;;;;;18.40;41.56;100182.35;;;;-49
2020/03/12 02:53:13;;;;;;;0.75;0.75;;;;;;;18.39;41.54;100178.56;;;;-48
2020/03/12 02:56:13;;;;;;;0.65;0.65;;;;;;;18.39;41.51;100179.63;;;;-47
2020/03/12 02:59:13;;;;;;;0.77;0.77;;;;;;;18.38;41.52;100182.43;;;;-47
2020/03/12 03:02:13;;;;;;;0.77;0.77;;;;;;;18.38;41.56;100179.35;;;;-47
2020/03/12 03:05:13;;;;;;;0.71;0.71;;;;;;;18.38;41.57;100187.45;;;;-48
2020/03/12 03:08:13;;;;;;;0.80;0.80;;;;;;;18.37;41.59;100184.56;;;;-46
2020/03/12 03:11:13;;;;;;;0.78;0.78;;;;;;;18.37;41.55;100184.16;;;;-47
2020/03/12 03:14:13;;;;;;;0.63;0.63;;;;;;;18.36;41.58;100186.69;;;;-47
2020/03/12 03:17:13;;;;;;;0.68;0.68;;;;;;;18.37;41.55;100190.80;;;;-47
2020/03/12 03:20:13;;;;;;;0.76;0.76;;;;;;;18.35;41.51;100187.81;;;;-46
2020/03/12 03:23:13;;;;;;;0.70;0.64;;;;;;;18.36;41.50;100187.35;;;;-48
2020/03/12 03:29:13;;;;;;;0.85;0.85;;;;;;;18.35;41.54;100186.80;;;;-47
2020/03/12 03:32:13;;;;;;;0.81;0.81;;;;;;;18.34;41.52;100185.19;;;;-47
2020/03/12 03:35:13;;;;;;;0.81;0.81;;;;;;;18.35;41.51;100193.22;;;;-47
2020/03/12 03:38:13;;;;;;;0.77;0.67;;;;;;;18.35;41.54;100193.89;;;;-47
2020/03/12 03:41:13;;;;;;;0.67;0.67;;;;;;;18.34;41.52;100197.36;;;;-47
2020/03/12 03:44:13;;;;;;;0.80;0.80;;;;;;;18.33;41.54;100204.20;;;;-47
2020/03/12 03:47:13;;;;;;;0.73;0.73;;;;;;;18.33;41.53;100204.44;;;;-47
2020/03/12 03:51:13;;;;;;;0.77;0.77;;;;;;;18.33;41.54;100210.85;;;;-47
2020/03/12 03:54:13;;;;;;;0.78;0.78;;;;;;;18.32;41.55;100223.78;;;;-46
2020/03/12 03:57:13;;;;;;;0.75;0.75;;;;;;;18.31;41.63;100214.38;;;;-47
2020/03/12 04:00:13;;;;;;;0.65;0.65;;;;;;;18.32;41.56;100227.96;;;;-47
2020/03/12 04:03:13;;;;;;;0.69;0.69;;;;;;;18.31;41.56;100235.04;;;;-47
2020/03/12 04:06:13;;;;;;;0.82;0.82;;;;;;;18.31;41.58;100233.50;;;;-47
2020/03/12 04:09:13;;;;;;;0.72;0.72;;;;;;;18.30;41.58;100238.41;;;;-48
2020/03/12 04:12:13;;;;;;;0.77;0.77;;;;;;;18.30;41.56;100239.00;;;;-46
2020/03/12 04:15:13;;;;;;;0.81;0.81;;;;;;;18.29;41.60;100236.22;;;;-47
2020/03/12 04:18:13;;;;;;;0.70;0.70;;;;;;;18.29;41.60;100233.95;;;;-46
2020/03/12 04:21:13;;;;;;;0.73;0.73;;;;;;;18.28;41.55;100233.50;;;;-47
2020/03/12 04:24:13;;;;;;;0.72;0.72;;;;;;;18.28;41.58;100232.67;;;;-47
2020/03/12 04:27:13;;;;;;;0.89;0.89;;;;;;;18.28;41.59;100208.27;;;;-47
2020/03/12 04:30:13;;;;;;;0.76;0.76;;;;;;;18.28;41.58;100213.97;;;;-47
2020/03/12 04:33:13;;;;;;;0.73;0.73;;;;;;;18.27;41.59;100208.34;;;;-47
2020/03/12 04:36:13;;;;;;;0.80;0.80;;;;;;;18.27;41.57;100199.88;;;;-47
2020/03/12 04:39:13;;;;;;;0.62;0.62;;;;;;;18.27;41.58;100205.67;;;;-49
2020/03/12 04:42:13;;;;;;;0.75;0.75;;;;;;;18.27;41.59;100196.41;;;;-47
2020/03/12 04:45:13;;;;;;;0.79;0.79;;;;;;;18.27;41.58;100200.82;;;;-47
2020/03/12 04:48:13;;;;;;;0.70;0.70;;;;;;;18.28;41.56;100211.23;;;;-47
2020/03/12 04:51:15;;;;;;;0.76;0.76;;;;;;;18.29;41.55;100213.78;;;;-47
2020/03/12 04:54:14;;;;;;;0.81;0.81;;;;;;;18.29;41.56;100211.31;;;;-46
2020/03/12 04:59:13;;;;;;;0.90;0.90;;;;;;;18.32;41.52;100206.30;;;;-48
2020/03/12 05:03:13;;;;;;;0.69;0.69;;;;;;;18.35;41.55;100209.48;;;;-47
2020/03/12 05:07:13;;;;;;;0.76;0.76;;;;;;;18.39;41.57;100206.55;;;;-48
2020/03/12 05:10:13;;;;;;;0.81;0.81;;;;;;;18.43;41.55;100200.54;;;;-47
2020/03/12 05:14:13;;;;;;;0.93;0.75;;;;;;;18.47;41.58;100194.37;;;;-47
2020/03/12 05:19:13;;;;;;;0.67;0.67;;;;;;;18.55;41.69;100195.72;;;;-47
2020/03/12 05:24:14;;;;;;;0.74;0.74;;;;;;;18.61;41.69;100198.45;;;;-47
2020/03/12 05:29:13;;;;;;;0.76;0.76;;;;;;;18.66;41.74;100194.00;;;;-48
2020/03/12 05:33:13;;;;;;;0.69;0.69;;;;;;;18.70;41.78;100197.95;;;;-48
2020/03/12 05:37:13;;;;;;;0.81;0.81;;;;;;;18.76;41.75;100190.41;;;;-47
2020/03/12 05:41:13;;;;;;;0.81;0.81;;;;;;;18.77;41.73;100177.58;;;;-47
2020/03/12 05:45:13;;;;;;;0.80;0.80;;;;;;;18.82;41.75;100177.85;;;;-47
2020/03/12 05:54:40;;;;;;;0.70;0.70;;;;;;;18.94;41.74;100175.25;;;;-47
2020/03/12 05:58:40;;;;;;;0.85;0.85;;;;;;;18.96;41.81;100170.64;;;;-47
2020/03/12 06:04:39;;;;;;;0.80;0.80;;;;;;;19.01;41.82;100168.17;;;;-47
2020/03/12 06:08:40;;;;;;;0.82;0.82;;;;;;;19.04;41.69;100176.84;;;;-47
2020/03/12 06:11:39;;;;;;;0.83;0.83;;;;;;;19.06;41.79;100182.45;;;;-47
2020/03/12 06:16:39;;;;;;;1.52;0.80;;;;;;;19.08;41.67;100179.69;;;;-47
2020/03/12 06:20:39;;;;;;;0.99;0.90;;;;;;;19.11;41.65;100184.44;;;;-47
2020/03/12 06:23:39;;;;;;;0.90;0.90;;;;;;;19.13;41.65;100192.52;;;;-47
2020/03/12 06:26:39;;;;;;;0.72;0.72;;;;;;;19.14;41.68;100194.03;;;;-48
2020/03/12 06:29:40;;;;;;;0.72;0.72;;;;;;;19.16;41.66;100201.55;;;;-47
2020/03/12 06:34:40;;;;;;;0.74;0.74;;;;;;;19.17;41.62;100205.00;;;;-47
2020/03/12 06:37:39;;;;;;;0.81;0.81;;;;;;;19.19;41.54;100206.79;;;;-47
2020/03/12 06:40:40;;;;;;;0.73;0.73;;;;;;;19.22;41.59;100206.98;;;;-47
2020/03/12 06:45:39;;;;;;;0.75;0.75;;;;;;;19.23;41.47;100219.02;;;;-47
2020/03/12 06:49:39;;;;;;;0.78;0.78;;;;;;;19.27;41.48;100223.26;;;;-47
2020/03/12 06:53:39;;;;;;;0.85;0.85;;;;;;;19.29;41.50;100229.54;;;;-47
2020/03/12 06:57:39;;;;;;;0.70;0.70;;;;;;;19.32;41.53;100228.77;;;;-47
2020/03/12 07:02:39;;;;;;;0.70;0.70;;;;;;;19.35;41.47;100236.98;;;;-47
2020/03/12 07:06:39;;;;;;;0.72;0.72;;;;;;;19.36;41.48;100237.30;;;;-47
2020/03/12 07:10:39;;;;;;;0.75;0.75;;;;;;;19.38;41.50;100239.56;;;;-49
2020/03/12 07:15:39;;;;;;;0.72;0.72;;;;;;;19.41;41.48;100235.50;;;;-47
2020/03/12 07:18:39;;;;;;;0.73;0.73;;;;;;;19.42;41.39;100236.61;;;;-47
2020/03/12 07:21:39;;;;;;;0.89;0.89;;;;;;;19.44;41.40;100241.84;;;;-48
2020/03/12 07:24:39;;;;;;;0.68;0.68;;;;;;;19.44;41.33;100240.87;;;;-47
2020/03/12 07:27:39;;;;;;;0.76;0.76;;;;;;;19.44;41.35;100234.75;;;;-47
2020/03/12 07:30:40;;;;;;;0.70;0.70;;;;;;;19.45;41.31;100235.46;;;;-47
2020/03/12 07:33:39;;;;;;;1.06;0.95;;;;;;;19.45;41.33;100236.13;;;;-47
2020/03/12 07:36:39;;;;;;;0.60;0.60;;;;;;;19.47;41.32;100242.17;;;;-47
2020/03/12 07:39:39;;;;;;;0.81;0.80;;;;;;;19.49;41.29;100247.11;;;;-47
2020/03/12 07:42:39;;;;;;;0.93;0.93;;;;;;;19.50;41.26;100242.30;;;;-51
2020/03/12 07:45:40;;;;;;;0.82;0.82;;;;;;;19.52;41.26;100255.73;;;;-51
2020/03/12 07:48:39;;;;;;;0.73;0.73;;;;;;;19.54;41.28;100250.90;;;;-51
2020/03/12 07:51:40;;;;;;;1.05;0.90;;;;;;;19.55;41.27;100256.20;;;;-51
2020/03/12 07:54:40;;;;;;;0.84;0.84;;;;;;;19.56;41.26;100260.26;;;;-51
2020/03/12 07:57:39;;;;;;;0.79;0.79;;;;;;;19.57;41.21;100264.42;;;;-51
2020/03/12 08:00:39;;;;;;;0.80;0.80;;;;;;;19.60;41.22;100264.95;;;;-52
2020/03/12 08:03:40;;;;;;;1.01;0.93;;;;;;;19.62;41.19;100261.74;;;;-51
2020/03/12 08:06:40;;;;;;;0.72;0.72;;;;;;;19.63;41.20;100265.34;;;;-51
2020/03/12 08:09:39;;;;;;;0.81;0.81;;;;;;;19.67;41.18;100268.41;;;;-51
2020/03/12 08:12:39;;;;;;;0.60;0.60;;;;;;;19.67;41.21;100266.74;;;;-51
2020/03/12 08:15:39;;;;;;;0.70;0.70;;;;;;;19.70;41.12;100250.27;;;;-51
2020/03/12 08:18:40;;;;;;;0.69;0.69;;;;;;;19.70;41.20;100239.55;;;;-50
2020/03/12 08:21:39;;;;;;;0.82;0.82;;;;;;;19.72;41.14;100234.73;;;;-51
2020/03/12 08:24:39;;;;;;;0.79;0.79;;;;;;;19.71;41.16;100239.76;;;;-51
2020/03/12 08:27:39;;;;;;;0.75;0.75;;;;;;;19.72;41.14;100231.66;;;;-50
2020/03/12 08:30:39;;;;;;;0.94;0.91;;;;;;;19.73;41.20;100233.94;;;;-50
2020/03/12 08:33:40;;;;;;;0.70;0.70;;;;;;;19.75;41.07;100242.84;;;;-52
2020/03/12 08:36:40;;;;;;;0.79;0.77;;;;;;;19.76;41.13;100252.93;;;;-51
2020/03/12 08:39:40;;;;;;;1.06;0.83;;;;;;;19.77;41.17;100253.30;;;;-50
2020/03/12 08:42:40;;;;;;;0.89;0.89;;;;;;;19.78;41.11;100255.13;;;;-52
2020/03/12 08:45:40;;;;;;;0.89;0.89;;;;;;;19.79;41.11;100253.05;;;;-51
2020/03/12 08:48:39;;;;;;;3.11;0.89;;;;;;;19.80;41.20;100255.88;;;;-49
2020/03/12 08:51:40;;;;;;;5.40;1.04;;;;;;;19.82;41.90;100255.17;;;;-51
2020/03/12 08:54:39;;;;;;;5.61;0.89;;;;;;;19.82;42.15;100255.52;;;;-52
2020/03/12 08:57:40;;;;;;;1.29;0.82;;;;;;;19.84;42.28;100256.94;;;;-52
2020/03/12 09:00:39;;;;;;;1.06;0.80;;;;;;;19.86;42.46;100257.58;;;;-52
2020/03/12 09:03:40;;;;;;;0.77;0.77;;;;;;;19.87;42.38;100253.38;;;;-53
2020/03/12 09:06:39;;;;;;;4.96;0.97;;;;;;;19.90;42.72;100249.70;;;;-50
2020/03/12 09:09:39;;;;;;;2.10;1.19;;;;;;;19.91;42.69;100247.99;;;;-54
2020/03/12 09:12:39;;;;;;;1.55;0.85;;;;;;;19.93;42.59;100258.53;;;;-53
2020/03/12 09:15:40;;;;;;;5.45;1.03;;;;;;;19.94;42.52;100263.09;;;;-53
2020/03/12 09:18:40;;;;;;;1.49;0.99;;;;;;;19.97;42.58;100258.95;;;;-52
2020/03/12 09:21:40;;;;;;;6.22;1.03;;;;;;;20.02;43.25;100270.75;;;;-50
2020/03/12 09:24:39;;;;;;;1.93;1.09;;;;;;;20.04;43.32;100264.36;;;;-51
2020/03/12 09:27:40;;;;;;;3.01;0.89;;;;;;;20.04;42.25;100265.47;;;;-50
2020/03/12 09:30:40;;;;;;;2.67;0.93;;;;;;;20.10;43.01;100281.09;;;;-50
2020/03/12 09:33:39;;;;;;;1.92;0.95;;;;;;;20.11;42.90;100268.83;;;;-50
2020/03/12 09:36:40;;;;;;;2.43;0.91;;;;;;;20.13;42.79;100263.61;;;;-50
2020/03/12 09:39:39;;;;;;;1.24;0.71;;;;;;;20.14;42.41;100262.97;;;;-50
2020/03/12 09:42:40;;;;;;;3.13;0.91;;;;;;;20.17;42.61;100259.67;;;;-51
2020/03/12 09:45:40;;;;;;;3.07;1.19;;;;;;;20.17;42.59;100265.77;;;;-51
2020/03/12 09:48:39;;;;;;;1.35;0.91;;;;;;;20.18;42.55;100258.87;;;;-51
2020/03/12 09:51:39;;;;;;;1.13;1.00;;;;;;;20.20;42.46;100259.11;;;;-50
2020/03/12 09:54:39;;;;;;;1.05;1.00;;;;;;;20.21;42.12;100254.02;;;;-54
2020/03/12 09:57:39;;;;;;;1.89;0.90;;;;;;;20.18;41.92;100246.19;;;;-54
2020/03/12 10:00:39;;;;;;;1.61;0.95;;;;;;;20.19;42.18;100247.50;;;;-54
2020/03/12 10:03:40;;;;;;;6.24;1.21;;;;;;;20.20;42.29;100251.36;;;;-53
2020/03/12 10:06:39;;;;;;;2.18;1.00;;;;;;;20.21;42.38;100247.21;;;;-63
2020/03/12 10:09:40;;;;;;;1.05;0.89;;;;;;;20.27;43.36;100244.95;;;;-51
2020/03/12 10:12:40;;;;;;;2.56;0.96;;;;;;;20.29;42.74;100251.38;;;;-51
2020/03/12 10:15:40;;;;;;;2.49;1.19;;;;;;;20.30;42.16;100248.83;;;;-51
2020/03/12 10:18:39;;;;;;;1.73;1.13;;;;;;;20.32;42.31;100259.44;;;;-52
2020/03/12 10:21:40;;;;;;;1.51;0.87;;;;;;;20.33;42.06;100270.47;;;;-53
2020/03/12 10:24:39;;;;;;;1.24;1.00;;;;;;;20.34;42.17;100256.69;;;;-54
2020/03/12 10:27:40;;;;;;;2.08;1.08;;;;;;;20.35;41.95;100257.91;;;;-49
2020/03/12 10:30:39;;;;;;;1.11;0.89;;;;;;;20.39;42.25;100262.42;;;;-52
2020/03/12 10:33:40;;;;;;;1.19;0.93;;;;;;;20.41;42.10;100264.41;;;;-52
2020/03/12 10:36:39;;;;;;;1.51;0.90;;;;;;;20.43;42.03;100267.56;;;;-51
2020/03/12 10:39:40;;;;;;;2.01;0.76;;;;;;;20.45;42.37;100274.28;;;;-51
2020/03/12 10:42:40;;;;;;;1.48;0.87;;;;;;;20.47;42.08;100284.42;;;;-51
2020/03/12 10:45:40;;;;;;;1.39;0.75;;;;;;;20.47;42.10;100289.79;;;;-50
2020/03/12 10:48:39;;;;;;;1.53;1.09;;;;;;;20.51;42.32;100297.22;;;;-51
2020/03/12 10:51:39;;;;;;;0.98;0.90;;;;;;;20.50;41.91;100297.12;;;;-51
2020/03/12 10:54:39;;;;;;;1.14;0.91;;;;;;;20.50;41.66;100301.31;;;;-54
2020/03/12 10:57:39;;;;;;;1.89;0.90;;;;;;;20.51;41.78;100307.05;;;;-54
2020/03/12 11:00:40;;;;;;;1.21;0.85;;;;;;;20.52;42.14;100321.25;;;;-54
2020/03/12 11:03:39;;;;;;;2.39;0.97;;;;;;;20.52;41.92;100312.06;;;;-54
2020/03/12 11:06:39;;;;;;;0.93;0.83;;;;;;;20.53;41.85;100305.52;;;;-55
2020/03/12 11:09:39;;;;;;;1.17;0.99;;;;;;;20.53;41.58;100321.05;;;;-53
2020/03/12 11:12:39;;;;;;;2.21;1.07;;;;;;;20.54;41.98;100321.53;;;;-51
2020/03/12 11:15:39;;;;;;;1.81;1.00;;;;;;;20.54;41.80;100329.21;;;;-50
2020/03/12 11:18:39;;;;;;;1.39;0.93;;;;;;;20.53;41.55;100332.19;;;;-50
2020/03/12 11:21:40;;;;;;;1.74;1.06;;;;;;;20.55;41.46;100326.84;;;;-51
2020/03/12 11:24:39;;;;;;;1.71;0.99;;;;;;;20.56;41.47;100322.91;;;;-50
2020/03/12 11:27:39;;;;;;;0.93;0.93;;;;;;;20.56;41.32;100322.47;;;;-51
2020/03/12 11:30:39;;;;;;;1.00;1.00;;;;;;;20.56;41.38;100323.92;;;;-51
2020/03/12 11:33:40;;;;;;;1.51;1.14;;;;;;;20.56;41.24;100329.28;;;;-50
2020/03/12 11:36:40;;;;;;;0.79;0.79;;;;;;;20.57;41.32;100324.70;;;;-51
2020/03/12 11:39:39;;;;;;;2.06;1.16;;;;;;;20.57;41.25;100333.45;;;;-51
2020/03/12 11:42:39;;;;;;;0.99;0.99;;;;;;;20.56;41.09;100326.88;;;;-51
2020/03/12 11:45:40;;;;;;;1.02;0.91;;;;;;;20.56;41.20;100326.44;;;;-51
2020/03/12 11:48:40;;;;;;;1.94;0.92;;;;;;;20.55;41.12;100330.16;;;;-52
2020/03/12 11:51:39;;;;;;;1.92;1.00;;;;;;;20.54;41.04;100324.41;;;;-51
2020/03/12 11:54:39;;;;;;;1.31;1.02;;;;;;;20.52;41.00;100323.36;;;;-51
2020/03/12 11:57:39;;;;;;;1.07;0.98;;;;;;;20.52;41.01;100323.33;;;;-51
2020/03/12 12:00:47;;;;;;;0.91;0.91;;;;;;;20.52;41.12;100328.66;;;;-52
2020/03/12 12:03:42;;;;;;;0.83;0.83;;;;;;;20.51;41.00;100324.56;;;;-51
2020/03/12 12:06:39;;;;;;;1.13;1.02;;;;;;;20.50;40.96;100321.95;;;;-51
2020/03/12 12:09:40;;;;;;;0.91;0.91;;;;;;;20.50;41.02;100319.33;;;;-51
2020/03/12 12:12:39;;;;;;;0.87;0.87;;;;;;;20.50;41.03;100315.37;;;;-51
2020/03/12 12:15:40;;;;;;;0.79;0.79;;;;;;;20.48;40.85;100312.31;;;;-52
2020/03/12 12:18:39;;;;;;;2.07;1.00;;;;;;;20.48;40.93;100314.45;;;;-50
2020/03/12 12:21:40;;;;;;;0.80;0.80;;;;;;;20.49;40.97;100310.23;;;;-51
2020/03/12 12:24:40;;;;;;;2.19;0.93;;;;;;;20.48;40.90;100310.23;;;;-50
2020/03/12 12:27:40;;;;;;;1.38;0.89;;;;;;;20.48;40.96;100302.68;;;;-52
2020/03/12 12:30:39;;;;;;;1.75;0.95;;;;;;;20.49;40.88;100312.02;;;;-51
2020/03/12 12:33:39;;;;;;;0.91;0.90;;;;;;;20.49;40.94;100301.00;;;;-51
2020/03/12 12:36:39;;;;;;;1.03;0.95;;;;;;;20.50;40.84;100289.80;;;;-52
2020/03/12 12:39:39;;;;;;;1.02;0.98;;;;;;;20.50;40.79;100293.56;;;;-51
2020/03/12 12:42:39;;;;;;;1.17;1.07;;;;;;;20.49;40.79;100279.80;;;;-50
2020/03/12 12:45:40;;;;;;;1.09;0.99;;;;;;;20.50;40.90;100280.17;;;;-51
2020/03/12 12:48:40;;;;;;;1.19;1.10;;;;;;;20.51;40.81;100278.70;;;;-51
2020/03/12 12:51:39;;;;;;;0.90;0.90;;;;;;;20.52;40.95;100267.97;;;;-51
2020/03/12 12:54:39;;;;;;;1.19;0.97;;;;;;;20.51;40.82;100273.16;;;;-50
2020/03/12 12:57:39;;;;;;;1.99;1.10;;;;;;;20.55;41.02;100277.67;;;;-49
2020/03/12 13:00:39;;;;;;;2.40;1.11;;;;;;;20.59;41.72;100263.56;;;;-50
2020/03/12 13:03:40;;;;;;;1.19;1.09;;;;;;;20.60;41.70;100267.02;;;;-52
2020/03/12 13:06:39;;;;;;;1.29;0.99;;;;;;;20.65;41.99;100264.35;;;;-50
2020/03/12 13:09:40;;;;;;;1.00;0.99;;;;;;;20.67;41.75;100263.98;;;;-52
2020/03/12 13:12:39;;;;;;;3.04;1.07;;;;;;;20.69;41.95;100260.81;;;;-51
2020/03/12 13:15:39;;;;;;;1.08;0.90;;;;;;;20.70;41.97;100263.70;;;;-50
2020/03/12 13:18:39;;;;;;;1.08;0.95;;;;;;;20.71;41.95;100270.28;;;;-52
2020/03/12 13:21:39;;;;;;;1.59;1.07;;;;;;;20.70;41.82;100263.02;;;;-54
2020/03/12 13:24:40;;;;;;;2.14;1.07;;;;;;;20.71;41.51;100261.72;;;;-52
2020/03/12 13:27:39;;;;;;;0.90;0.90;;;;;;;20.74;42.40;100264.34;;;;-55
2020/03/12 13:30:39;;;;;;;1.18;1.09;;;;;;;20.76;42.14;100261.73;;;;-51
2020/03/12 13:33:39;;;;;;;2.55;1.00;;;;;;;20.76;42.15;100273.38;;;;-55
2020/03/12 13:36:39;;;;;;;1.17;1.07;;;;;;;20.75;41.78;100294.09;;;;-52
2020/03/12 13:39:39;;;;;;;1.56;0.90;;;;;;;20.77;42.06;100298.16;;;;-51
2020/03/12 13:42:40;;;;;;;1.07;0.99;;;;;;;20.77;42.15;100298.59;;;;-51
2020/03/12 13:45:40;;;;;;;2.30;1.03;;;;;;;20.80;42.32;100308.97;;;;-49
2020/03/12 13:48:39;;;;;;;1.17;1.00;;;;;;;20.84;42.55;100304.66;;;;-51
2020/03/12 13:51:40;;;;;;;1.38;1.03;;;;;;;20.86;42.76;100315.00;;;;-49
2020/03/12 13:54:39;;;;;;;2.79;0.89;;;;;;;20.88;42.21;100305.64;;;;-56
2020/03/12 13:57:39;;;;;;;2.92;1.12;;;;;;;20.87;41.84;100313.89;;;;-56
2020/03/12 14:00:39;;;;;;;1.82;1.14;;;;;;;20.84;41.39;100304.59;;;;-56
2020/03/12 14:03:39;;;;;;;1.75;1.16;;;;;;;20.83;41.65;100313.05;;;;-57
2020/03/12 14:06:40;;;;;;;6.64;1.25;;;;;;;20.79;41.79;100327.03;;;;-55
2020/03/12 14:09:39;;;;;;;3.65;1.38;;;;;;;20.77;42.36;100329.57;;;;-57
2020/03/12 14:12:39;;;;;;;6.21;1.56;;;;;;;20.77;42.89;100315.14;;;;-53
2020/03/12 14:15:39;;;;;;;4.23;1.35;;;;;;;20.79;42.53;100316.19;;;;-58
2020/03/12 14:18:39;;;;;;;4.15;1.45;;;;;;;20.80;42.68;100309.48;;;;-60
2020/03/12 14:21:39;;;;;;;1.50;1.39;;;;;;;20.82;42.62;100301.16;;;;-52
2020/03/12 14:24:40;;;;;;;2.95;1.31;;;;;;;20.82;42.26;100301.59;;;;-53
2020/03/12 14:27:40;;;;;;;3.27;1.26;;;;;;;20.85;42.42;100310.97;;;;-52
2020/03/12 14:30:40;;;;;;;4.08;1.33;;;;;;;20.87;42.48;100306.84;;;;-64
2020/03/12 14:38:14;;;;;;;3.41;1.24;;;;;;;20.92;42.64;100309.04;;;;-56
2020/03/12 14:41:14;;;;;;;2.77;1.29;;;;;;;20.91;42.29;100313.97;;;;-60
2020/03/12 14:44:14;;;;;;;1.31;1.21;;;;;;;20.91;42.34;100325.16;;;;-54
2020/03/12 14:47:14;;;;;;;2.85;1.40;;;;;;;20.90;41.95;100326.36;;;;-59
2020/03/12 14:50:14;;;;;;;2.25;1.21;;;;;;;20.91;42.17;100330.32;;;;-59
2020/03/12 14:53:14;;;;;;;4.57;1.39;;;;;;;20.91;41.97;100329.25;;;;-51
2020/03/12 14:56:14;;;;;;;4.36;1.40;;;;;;;20.91;42.09;100328.52;;;;-54
2020/03/12 14:59:14;;;;;;;2.69;1.20;;;;;;;20.92;42.26;100327.50;;;;-57
2020/03/12 15:02:14;;;;;;;1.78;1.11;;;;;;;20.93;42.14;100322.88;;;;-60
2020/03/12 15:05:14;;;;;;;1.71;1.25;;;;;;;20.95;42.19;100318.08;;;;-61
2020/03/12 15:08:14;;;;;;;1.46;1.07;;;;;;;20.95;41.97;100313.05;;;;-63
2020/03/12 15:11:14;;;;;;;2.90;1.21;;;;;;;20.98;42.34;100301.13;;;;-59
2020/03/12 15:14:14;;;;;;;2.34;1.25;;;;;;;20.98;42.22;100299.38;;;;-59
2020/03/12 15:17:14;;;;;;;2.42;1.28;;;;;;;20.99;42.13;100296.97;;;;-56
2020/03/12 15:20:14;;;;;;;2.45;1.31;;;;;;;21.00;42.34;100306.84;;;;-53
2020/03/12 15:23:14;;;;;;;1.46;1.19;;;;;;;21.00;42.04;100309.50;;;;-54
2020/03/12 15:26:14;;;;;;;2.56;1.30;;;;;;;21.01;42.26;100304.27;;;;-53
2020/03/12 15:29:14;;;;;;;2.85;1.25;;;;;;;21.03;42.22;100307.19;;;;-64
2020/03/12 15:32:14;;;;;;;3.37;1.20;;;;;;;21.03;42.17;100302.31;;;;-64
2020/03/12 15:35:14;;;;;;;2.27;1.30;;;;;;;21.04;42.14;100308.73;;;;-63
2020/03/12 15:38:14;;;;;;;2.92;1.31;;;;;;;21.04;41.94;100306.15;;;;-55
2020/03/12 15:41:14;;;;;;;2.97;1.40;;;;;;;21.03;42.19;100299.91;;;;-55
2020/03/12 15:44:14;;;;;;;2.19;1.26;;;;;;;21.04;42.12;100296.88;;;;-58
2020/03/12 15:47:14;;;;;;;2.18;1.32;;;;;;;21.04;42.01;100300.50;;;;-55
2020/03/12 15:50:14;;;;;;;2.90;1.36;;;;;;;21.03;41.73;100301.37;;;;-58
2020/03/12 15:53:14;;;;;;;2.68;1.29;;;;;;;21.02;41.60;100296.06;;;;-56
2020/03/12 15:56:14;;;;;;;1.52;1.23;;;;;;;20.99;41.49;100300.09;;;;-49
2020/03/12 15:59:14;;;;;;;3.47;1.30;;;;;;;20.98;41.34;100307.75;;;;-49
2020/03/12 16:02:14;;;;;;;2.25;1.23;;;;;;;20.97;41.28;100304.86;;;;-49
2020/03/12 16:05:14;;;;;;;1.71;1.20;;;;;;;20.96;41.40;100306.00;;;;-49
2020/03/12 16:08:14;;;;;;;1.75;1.37;;;;;;;20.96;41.43;100298.20;;;;-49
2020/03/12 16:11:14;;;;;;;2.17;1.29;;;;;;;20.95;41.86;100296.33;;;;-48
2020/03/12 16:14:14;;;;;;;3.24;1.45;;;;;;;20.97;42.11;100302.77;;;;-44
2020/03/12 16:17:14;;;;;;;2.38;1.20;;;;;;;20.97;42.05;100299.66;;;;-48
2020/03/12 16:20:14;;;;;;;2.65;1.42;;;;;;;20.97;41.87;100299.48;;;;-52
2020/03/12 16:23:14;;;;;;;2.48;1.37;;;;;;;20.98;41.87;100294.31;;;;-52
2020/03/12 16:26:14;;;;;;;3.68;1.34;;;;;;;20.98;41.86;100291.16;;;;-52
2020/03/12 16:29:14;;;;;;;2.50;1.45;;;;;;;20.98;41.73;100289.72;;;;-53
2020/03/12 16:32:14;;;;;;;6.50;1.61;;;;;;;20.95;41.51;100284.91;;;;-52
2020/03/12 16:35:14;;;;;;;2.99;1.43;;;;;;;20.95;41.39;100288.50;;;;-52
2020/03/12 16:38:14;;;;;;;1.61;1.27;;;;;;;20.94;41.52;100286.31;;;;-52
2020/03/12 16:41:14;;;;;;;2.95;1.31;;;;;;;20.93;41.49;100289.47;;;;-53
2020/03/12 16:44:14;;;;;;;1.82;1.28;;;;;;;20.93;41.41;100290.78;;;;-52
2020/03/12 16:47:14;;;;;;;2.20;1.26;;;;;;;20.92;41.40;100285.70;;;;-52
2020/03/12 16:50:14;;;;;;;2.71;1.30;;;;;;;20.91;41.37;100282.52;;;;-52
2020/03/12 16:53:14;;;;;;;2.94;1.37;;;;;;;20.91;41.41;100283.52;;;;-52
2020/03/12 16:56:14;;;;;;;3.19;1.50;;;;;;;20.91;41.38;100285.77;;;;-53
2020/03/12 16:59:14;;;;;;;3.05;1.50;;;;;;;20.91;41.39;100286.55;;;;-53
2020/03/12 17:02:14;;;;;;;2.71;1.27;;;;;;;20.90;41.23;100283.48;;;;-52
2020/03/12 17:05:14;;;;;;;2.00;1.23;;;;;;;20.91;41.24;100283.32;;;;-52
2020/03/12 17:08:14;;;;;;;1.28;1.18;;;;;;;20.93;41.31;100288.59;;;;-52
2020/03/12 17:11:14;;;;;;;1.30;1.20;;;;;;;20.92;41.29;100292.45;;;;-52
2020/03/12 17:14:14;;;;;;;1.77;1.20;;;;;;;20.93;41.19;100294.14;;;;-52
2020/03/12 17:17:14;;;;;;;2.83;1.41;;;;;;;20.93;41.30;100293.06;;;;-52
2020/03/12 17:20:14;;;;;;;1.33;1.20;;;;;;;20.93;41.33;100296.69;;;;-52
2020/03/12 17:23:14;;;;;;;1.63;1.23;;;;;;;20.93;41.30;100302.23;;;;-52
2020/03/12 17:26:14;;;;;;;1.65;1.20;;;;;;;20.93;41.16;100302.63;;;;-52
2020/03/12 17:29:14;;;;;;;1.55;1.39;;;;;;;20.93;41.30;100307.66;;;;-52
2020/03/12 17:32:14;;;;;;;1.49;1.29;;;;;;;20.93;41.29;100315.32;;;;-52
2020/03/12 17:35:14;;;;;;;1.99;1.35;;;;;;;20.94;41.25;100317.61;;;;-53